createdAt,value
2019-04-14T00:01:58.844Z,86.80
2019-04-14T00:04:42.233Z,86.80
2019-04-14T00:07:12.196Z,86.70
2019-04-14T00:09:41.597Z,86.70
2019-04-14T00:12:12.616Z,86.60
2019-04-14T00:14:42.507Z,86.60
2019-04-14T00:17:12.980Z,86.70
2019-04-14T00:19:43.452Z,86.80
2019-04-14T00:22:14.011Z,86.70
2019-04-14T00:24:44.507Z,86.80
2019-04-14T00:27:14.980Z,86.80
2019-04-14T00:29:44.352Z,86.70
2019-04-14T00:32:14.105Z,86.70
2019-04-14T00:34:52.699Z,87.10
2019-04-14T00:37:36.240Z,87.00
2019-04-14T00:40:10.485Z,87.40
2019-04-14T00:42:58.914Z,87.60
2019-04-14T00:45:48.305Z,88.10
2019-04-14T00:48:20.933Z,88.40
2019-04-14T00:50:50.278Z,87.90
2019-04-14T00:53:20.605Z,88.30
2019-04-14T00:55:51.120Z,88.00
2019-04-14T00:58:21.460Z,87.60
2019-04-14T01:00:53.698Z,87.60
2019-04-14T01:03:23.096Z,87.90
2019-04-14T01:05:52.606Z,88.00
2019-04-14T01:08:22.755Z,88.30
2019-04-14T01:10:52.139Z,88.50
2019-04-14T01:13:22.204Z,88.30
2019-04-14T01:16:01.833Z,88.10
2019-04-14T01:18:23.884Z,88.00
2019-04-14T01:20:53.619Z,88.00
2019-04-14T01:23:23.925Z,87.90
2019-04-14T01:25:54.224Z,88.00
2019-04-14T01:28:24.391Z,88.20
2019-04-14T01:30:54.500Z,88.00
2019-04-14T01:33:25.012Z,88.60
2019-04-14T01:35:55.288Z,88.20
2019-04-14T01:38:25.523Z,88.30
2019-04-14T01:40:55.302Z,88.40
2019-04-14T01:43:25.654Z,88.50
2019-04-14T01:46:06.086Z,88.60
2019-04-14T01:48:25.980Z,88.80
2019-04-14T01:51:26.717Z,88.70
2019-04-14T01:54:17.900Z,88.60
2019-04-14T01:56:55.907Z,88.40
2019-04-14T01:59:26.268Z,88.60
2019-04-14T02:01:56.578Z,89.20
2019-04-14T02:04:26.721Z,89.20
2019-04-14T02:06:57.369Z,89.20
2019-04-14T02:09:27.240Z,89.20
2019-04-14T02:11:57.441Z,89.40
2019-04-14T02:14:27.754Z,89.40
2019-04-14T02:17:00.544Z,89.20
2019-04-14T02:19:28.847Z,89.40
2019-04-14T02:21:58.551Z,89.30
2019-04-14T02:24:28.873Z,89.40
2019-04-14T02:26:59.144Z,89.40
2019-04-14T02:29:29.660Z,89.60
2019-04-14T02:32:27.272Z,89.70
2019-04-14T02:34:57.961Z,89.00
2019-04-14T02:37:43.324Z,89.00
2019-04-14T02:42:36.695Z,89.30
2019-04-14T02:45:00.700Z,89.20
2019-04-14T02:50:08.373Z,89.50
2019-04-14T02:57:38.442Z,89.40
2019-04-14T03:00:15.454Z,89.30
2019-04-14T03:05:01.935Z,89.10
2019-04-14T03:07:41.973Z,89.40
2019-04-14T03:10:13.089Z,89.00
2019-04-14T03:12:40.552Z,88.70
2019-04-14T03:15:08.107Z,89.10
2019-04-14T03:18:20.504Z,89.40
2019-04-14T03:21:11.208Z,89.00
2019-04-14T03:23:45.240Z,88.80
2019-04-14T03:26:17.833Z,88.80
2019-04-14T03:28:51.729Z,89.00
2019-04-14T03:37:21.996Z,89.40
2019-04-14T03:41:31.224Z,89.40
2019-04-14T03:43:54.279Z,89.50
2019-04-14T03:46:37.104Z,89.40
2019-04-14T03:49:05.993Z,89.20
2019-04-14T03:51:48.278Z,89.10
2019-04-14T03:53:57.585Z,89.20
2019-04-14T03:56:29.790Z,89.20
2019-04-14T03:58:59.844Z,89.50
2019-04-14T04:01:30.217Z,89.20
2019-04-14T04:04:00.658Z,88.90
2019-04-14T04:06:31.257Z,88.80
2019-04-14T04:09:01.796Z,88.90
2019-04-14T04:11:34.379Z,89.10
2019-04-14T04:14:05.158Z,88.80
2019-04-14T04:16:57.350Z,88.90
2019-04-14T04:19:47.725Z,88.80
2019-04-14T04:22:34.778Z,88.90
2019-04-14T04:25:24.754Z,88.90
2019-04-14T04:28:23.206Z,89.00
2019-04-14T04:31:04.509Z,89.80
2019-04-14T04:33:50.550Z,89.70
2019-04-14T04:36:24.806Z,89.40
2019-04-14T04:39:01.795Z,89.00
2019-04-14T04:41:31.912Z,89.20
2019-04-14T04:44:01.169Z,89.40
2019-04-14T04:46:30.929Z,89.50
2019-04-14T04:49:10.857Z,89.30
2019-04-14T04:51:31.636Z,89.50
2019-04-14T04:54:01.708Z,89.40
2019-04-14T04:56:31.825Z,89.40
2019-04-14T04:59:01.221Z,89.40
2019-04-14T05:01:31.514Z,89.70
2019-04-14T05:04:02.149Z,89.80
2019-04-14T05:07:05.929Z,90.00
2019-04-14T05:09:53.479Z,90.00
2019-04-14T05:12:41.390Z,90.00
2019-04-14T05:15:40.108Z,89.90
2019-04-14T05:18:13.469Z,90.00
2019-04-14T05:20:42.696Z,90.10
2019-04-14T05:23:12.623Z,89.90
2019-04-14T05:25:42.980Z,89.80
2019-04-14T05:28:13.407Z,90.10
2019-04-14T05:30:43.611Z,89.80
2019-04-14T05:33:14.089Z,89.80
2019-04-14T05:35:44.514Z,90.10
2019-04-14T05:38:14.715Z,90.00
2019-04-14T05:40:45.052Z,90.00
2019-04-14T05:43:27.366Z,90.10
2019-04-14T05:45:45.793Z,90.20
2019-04-14T05:48:16.080Z,90.20
2019-04-14T05:50:45.421Z,90.00
2019-04-14T05:53:15.912Z,90.10
2019-04-14T05:55:45.990Z,90.20
2019-04-14T05:58:16.410Z,90.10
2019-04-14T06:00:47.089Z,90.40
2019-04-14T06:03:16.782Z,90.20
2019-04-14T06:05:46.372Z,90.20
2019-04-14T06:08:15.909Z,90.00
2019-04-14T06:10:45.154Z,89.80
2019-04-14T06:13:14.460Z,89.60
2019-04-14T06:15:43.743Z,90.00
2019-04-14T06:18:12.988Z,90.00
2019-04-14T06:20:42.800Z,90.00
2019-04-14T06:23:12.054Z,89.90
2019-04-14T06:25:41.400Z,90.00
2019-04-14T06:28:10.643Z,89.90
2019-04-14T06:31:04.880Z,90.00
2019-04-14T06:33:48.970Z,89.70
2019-04-14T06:36:36.319Z,89.70
2019-04-14T06:39:10.172Z,90.00
2019-04-14T06:41:39.772Z,90.00
2019-04-14T06:44:09.447Z,90.00
2019-04-14T06:46:38.676Z,90.00
2019-04-14T06:49:08.005Z,90.20
2019-04-14T06:51:37.241Z,90.20
2019-04-14T06:54:06.597Z,90.40
2019-04-14T06:56:36.884Z,90.00
2019-04-14T06:59:06.137Z,90.20
2019-04-14T07:01:35.488Z,90.20
2019-04-14T07:04:04.820Z,90.10
2019-04-14T07:06:34.172Z,90.00
2019-04-14T07:09:04.911Z,90.10
2019-04-14T07:11:34.429Z,89.30
2019-04-14T07:14:04.998Z,89.80
2019-04-14T07:16:34.446Z,90.00
2019-04-14T07:19:03.748Z,89.90
2019-04-14T07:21:33.158Z,90.00
2019-04-14T07:24:02.823Z,90.10
2019-04-14T07:26:32.122Z,90.10
2019-04-14T07:29:01.457Z,89.90
2019-04-14T07:31:48.528Z,89.40
2019-04-14T07:34:39.698Z,89.60
2019-04-14T07:37:28.106Z,89.70
2019-04-14T07:40:01.508Z,89.10
2019-04-14T07:42:49.964Z,89.40
2019-04-14T07:45:34.310Z,89.30
2019-04-14T07:48:23.144Z,89.40
2019-04-14T07:50:59.235Z,89.40
2019-04-14T07:53:46.204Z,89.60
2019-04-14T07:56:33.805Z,89.50
2019-04-14T07:59:05.610Z,89.20
2019-04-14T08:01:40.623Z,89.40
2019-04-14T08:04:16.421Z,90.00
2019-04-14T08:06:49.281Z,89.80
2019-04-14T08:09:18.873Z,90.00
2019-04-14T08:11:49.206Z,90.00
2019-04-14T08:14:18.603Z,90.30
2019-04-14T08:16:48.211Z,90.20
2019-04-14T08:19:17.623Z,90.10
2019-04-14T08:21:47.270Z,90.20
2019-04-14T08:24:16.688Z,90.20
2019-04-14T08:26:45.940Z,90.20
2019-04-14T08:29:15.257Z,90.40
2019-04-14T08:31:44.537Z,90.20
2019-04-14T08:34:14.226Z,90.00
2019-04-14T08:36:43.520Z,90.10
2019-04-14T08:39:13.230Z,90.30
2019-04-14T08:42:04.743Z,90.00
2019-04-14T08:44:53.279Z,90.10
2019-04-14T08:47:38.195Z,90.10
2019-04-14T08:50:38.903Z,90.10
2019-04-14T08:53:25.601Z,90.20
2019-04-14T08:56:09.368Z,90.10
2019-04-14T08:59:03.844Z,90.00
2019-04-14T09:01:55.184Z,90.00
2019-04-14T09:04:38.197Z,90.30
2019-04-14T09:07:35.988Z,90.00
2019-04-14T09:10:16.003Z,89.60
2019-04-14T09:12:46.908Z,89.60
2019-04-14T09:15:16.254Z,89.30
2019-04-14T09:17:45.832Z,89.50
2019-04-14T09:20:15.225Z,90.00
2019-04-14T09:22:44.861Z,89.60
2019-04-14T09:25:14.221Z,89.70
2019-04-14T09:27:43.445Z,89.70
2019-04-14T09:30:13.146Z,89.40
2019-04-14T09:32:42.497Z,89.00
2019-04-14T09:35:11.844Z,88.80
2019-04-14T09:37:41.185Z,89.30
2019-04-14T09:40:10.418Z,89.60
2019-04-14T09:42:39.736Z,89.90
2019-04-14T09:45:09.020Z,89.30
2019-04-14T09:47:38.492Z,89.00
2019-04-14T09:50:08.062Z,89.30
2019-04-14T09:52:37.400Z,89.50
2019-04-14T09:55:06.822Z,90.30
2019-04-14T09:57:36.160Z,90.20
2019-04-14T10:00:07.550Z,89.80
2019-04-14T10:02:37.035Z,89.80
2019-04-14T10:05:06.577Z,89.60
2019-04-14T10:07:35.940Z,89.40
2019-04-14T10:10:05.421Z,89.10
2019-04-14T10:12:35.413Z,89.30
2019-04-14T10:15:04.957Z,89.00
2019-04-14T10:17:34.647Z,88.90
2019-04-14T10:20:04.023Z,88.70
2019-04-14T10:22:34.486Z,89.80
2019-04-14T10:25:04.345Z,89.20
2019-04-14T10:27:33.660Z,89.40
2019-04-14T10:30:03.122Z,89.50
2019-04-14T10:32:34.761Z,89.10
2019-04-14T10:35:04.165Z,90.00
2019-04-14T10:37:33.616Z,89.70
2019-04-14T10:40:05.867Z,90.00
2019-04-14T10:42:34.225Z,90.00
2019-04-14T10:45:03.548Z,89.40
2019-04-14T10:47:32.931Z,89.40
2019-04-14T10:50:02.190Z,89.10
2019-04-14T10:52:31.468Z,88.20
2019-04-14T10:55:01.036Z,88.30
2019-04-14T10:57:30.440Z,89.20
2019-04-14T10:59:59.720Z,90.30
2019-04-14T11:02:30.166Z,89.10
2019-04-14T11:04:59.516Z,87.80
2019-04-14T11:07:30.132Z,88.40
2019-04-14T11:09:59.474Z,87.80
2019-04-14T11:12:28.744Z,88.10
2019-04-14T11:14:58.389Z,87.90
2019-04-14T11:17:27.681Z,87.60
2019-04-14T11:19:56.953Z,88.10
2019-04-14T11:22:26.215Z,88.40
2019-04-14T11:24:55.469Z,88.40
2019-04-14T11:27:24.812Z,88.80
2019-04-14T11:29:54.221Z,86.60
2019-04-14T11:32:58.060Z,87.10
2019-04-14T11:35:37.382Z,87.00
2019-04-14T11:38:13.804Z,86.80
2019-04-14T11:40:46.428Z,87.00
2019-04-14T11:43:16.891Z,87.40
2019-04-14T11:45:46.179Z,87.20
2019-04-14T11:48:15.509Z,86.70
2019-04-14T11:50:44.840Z,86.90
2019-04-14T11:53:14.126Z,86.60
2019-04-14T11:55:43.396Z,87.00
2019-04-14T11:58:12.797Z,87.20
2019-04-14T12:00:54.314Z,87.30
2019-04-14T12:03:43.446Z,87.40
2019-04-14T12:06:43.720Z,86.80
2019-04-14T12:09:22.120Z,86.50
2019-04-14T12:11:51.378Z,86.60
2019-04-14T12:14:20.763Z,86.70
2019-04-14T12:16:50.008Z,87.40
2019-04-14T12:19:19.264Z,86.50
2019-04-14T12:21:48.536Z,87.20
2019-04-14T12:24:17.885Z,87.30
2019-04-14T12:26:47.218Z,88.10
2019-04-14T12:29:16.849Z,88.70
2019-04-14T12:31:47.308Z,89.10
2019-04-14T12:34:18.331Z,88.90
2019-04-14T12:36:47.552Z,89.10
2019-04-14T12:39:21.388Z,88.70
2019-04-14T12:42:09.801Z,88.90
2019-04-14T12:44:54.317Z,89.00
2019-04-14T12:47:41.424Z,88.50
2019-04-14T12:50:21.880Z,88.70
2019-04-14T12:52:51.205Z,87.00
2019-04-14T12:55:20.538Z,87.00
2019-04-14T12:57:52.945Z,86.90
2019-04-14T13:00:41.656Z,86.40
2019-04-14T13:03:11.168Z,86.00
2019-04-14T13:05:40.461Z,86.40
2019-04-14T13:08:09.817Z,86.60
2019-04-14T13:10:39.040Z,87.00
2019-04-14T13:13:09.345Z,87.60
2019-04-14T13:15:38.625Z,88.40
2019-04-14T13:18:07.947Z,87.50
2019-04-14T13:20:37.220Z,87.30
2019-04-14T13:23:06.513Z,87.20
2019-04-14T13:25:35.935Z,87.00
2019-04-14T13:28:05.272Z,87.50
2019-04-14T13:30:36.902Z,87.50
2019-04-14T13:33:06.384Z,87.60
2019-04-14T13:35:45.056Z,88.10
2019-04-14T13:38:14.438Z,88.80
2019-04-14T13:40:44.348Z,88.40
2019-04-14T13:43:13.684Z,88.10
2019-04-14T13:45:43.065Z,88.40
2019-04-14T13:48:12.352Z,88.20
2019-04-14T13:50:41.672Z,88.30
2019-04-14T13:53:10.960Z,88.70
2019-04-14T13:55:40.326Z,88.80
2019-04-14T13:58:09.577Z,89.40
2019-04-14T14:00:38.880Z,89.30
2019-04-14T14:03:08.262Z,89.50
2019-04-14T14:05:38.058Z,89.50
2019-04-14T14:08:07.385Z,89.40
2019-04-14T14:10:37.105Z,89.30
2019-04-14T14:13:24.889Z,89.50
2019-04-14T14:16:12.141Z,89.30
2019-04-14T14:18:59.005Z,89.20
2019-04-14T14:21:50.430Z,89.40
2019-04-14T14:24:29.851Z,89.30
2019-04-14T14:26:59.484Z,89.30
2019-04-14T14:29:28.925Z,89.30
2019-04-14T14:31:58.710Z,89.90
2019-04-14T14:34:27.936Z,89.10
2019-04-14T14:36:57.329Z,89.30
2019-04-14T14:39:26.640Z,89.50
2019-04-14T14:41:55.926Z,90.10
2019-04-14T14:44:29.948Z,89.70
2019-04-14T14:47:04.365Z,89.60
2019-04-14T14:49:49.423Z,89.70
2019-04-14T14:52:20.053Z,89.70
2019-04-14T14:54:49.356Z,89.60
2019-04-14T14:57:18.884Z,89.70
2019-04-14T14:59:48.283Z,90.20
2019-04-14T15:02:17.687Z,89.70
2019-04-14T15:04:46.938Z,90.00
2019-04-14T15:07:16.313Z,89.90
2019-04-14T15:09:45.754Z,90.00
2019-04-14T15:12:15.283Z,89.90
2019-04-14T15:14:44.603Z,90.00
2019-04-14T15:17:13.928Z,89.90
2019-04-14T15:19:43.478Z,90.10
2019-04-14T15:22:12.885Z,90.00
2019-04-14T15:24:42.338Z,89.90
2019-04-14T15:27:11.700Z,89.60
2019-04-14T15:29:41.000Z,90.20
2019-04-14T15:32:10.358Z,90.00
2019-04-14T15:34:39.633Z,89.90
2019-04-14T15:37:08.954Z,89.90
2019-04-14T15:39:38.516Z,90.00
2019-04-14T15:42:08.168Z,90.30
2019-04-14T15:44:37.500Z,90.30
2019-04-14T15:47:06.757Z,90.20
2019-04-14T15:49:36.085Z,90.10
2019-04-14T15:52:05.352Z,90.00
2019-04-14T15:54:34.731Z,90.40
2019-04-14T15:57:09.653Z,90.50
2019-04-14T16:00:04.205Z,90.50
2019-04-14T16:02:55.425Z,90.40
2019-04-14T16:05:30.665Z,90.60
2019-04-14T16:08:09.116Z,90.50
2019-04-14T16:10:58.594Z,90.30
2019-04-14T16:13:34.889Z,90.30
2019-04-14T16:16:23.674Z,90.30
2019-04-14T16:18:58.087Z,90.50
2019-04-14T16:21:27.452Z,90.40
2019-04-14T16:23:56.778Z,90.40
2019-04-14T16:26:48.281Z,90.60
2019-04-14T16:29:27.954Z,90.90
2019-04-14T16:32:06.088Z,90.30
2019-04-14T16:34:54.667Z,90.30
2019-04-14T16:37:24.020Z,90.40
2019-04-14T16:39:53.266Z,90.60
2019-04-14T16:42:22.548Z,90.60
2019-04-14T16:44:51.941Z,90.70
2019-04-14T16:47:21.332Z,90.50
2019-04-14T16:49:50.683Z,90.40
2019-04-14T16:52:31.345Z,90.40
2019-04-14T16:55:19.732Z,90.50
2019-04-14T16:58:20.788Z,90.60
2019-04-14T17:00:58.446Z,90.80
2019-04-14T17:03:27.776Z,90.80
2019-04-14T17:05:57.114Z,90.70
2019-04-14T17:08:26.382Z,90.70
2019-04-14T17:10:55.709Z,90.40
2019-04-14T17:13:26.585Z,90.40
2019-04-14T17:16:13.970Z,90.50
2019-04-14T17:18:49.176Z,90.50
2019-04-14T17:21:36.412Z,90.60
2019-04-14T17:24:39.937Z,90.50
2019-04-14T17:27:28.458Z,90.80
2019-04-14T17:30:17.925Z,90.80
2019-04-14T17:33:01.049Z,90.90
2019-04-14T17:35:46.916Z,90.90
2019-04-14T17:38:26.898Z,90.90
2019-04-14T17:41:12.708Z,91.00
2019-04-14T17:43:50.573Z,90.90
2019-04-14T17:46:41.924Z,90.90
2019-04-14T17:49:30.378Z,91.00
2019-04-14T17:52:17.444Z,90.90
2019-04-14T17:55:19.353Z,90.90
2019-04-14T17:58:04.192Z,90.90
2019-04-14T18:00:40.920Z,91.10
2019-04-14T18:03:32.797Z,91.20
2019-04-14T18:06:15.536Z,91.10
2019-04-14T18:09:05.956Z,91.00
2019-04-14T18:11:49.770Z,91.00
2019-04-14T18:14:36.913Z,90.90
2019-04-14T18:17:15.289Z,91.00
2019-04-14T18:19:51.858Z,91.10
2019-04-14T18:22:21.665Z,91.00
2019-04-14T18:24:50.929Z,91.10
2019-04-14T18:27:20.209Z,90.90
2019-04-14T18:29:54.549Z,91.00
2019-04-14T18:32:31.453Z,90.90
2019-04-14T18:35:18.447Z,90.90
2019-04-14T18:38:03.442Z,91.10
2019-04-14T18:40:46.988Z,91.10
2019-04-14T18:43:50.672Z,90.90
2019-04-14T18:46:40.094Z,91.00
2019-04-14T18:49:24.179Z,91.10
2019-04-14T18:52:04.411Z,90.80
2019-04-14T18:54:55.693Z,90.80
2019-04-14T18:57:41.097Z,90.90
2019-04-14T19:00:28.416Z,90.80
2019-04-14T19:02:57.844Z,91.00
2019-04-14T19:05:27.363Z,91.10
2019-04-14T19:07:56.776Z,91.20
2019-04-14T19:10:26.345Z,91.20
2019-04-14T19:13:10.646Z,91.10
2019-04-14T19:15:43.589Z,91.00
2019-04-14T19:18:25.574Z,91.20
2019-04-14T19:20:59.782Z,91.30
2019-04-14T19:23:29.121Z,91.10
2019-04-14T19:25:58.580Z,91.10
2019-04-14T19:28:29.081Z,91.20
2019-04-14T19:30:58.509Z,91.40
2019-04-14T19:33:27.986Z,91.30
2019-04-14T19:35:57.341Z,91.40
2019-04-14T19:38:26.695Z,91.40
2019-04-14T19:40:56.150Z,91.20
2019-04-14T19:43:25.750Z,91.50
2019-04-14T19:45:56.655Z,91.40
2019-04-14T19:48:26.278Z,91.40
2019-04-14T19:50:55.769Z,91.50
2019-04-14T19:53:25.537Z,91.60
2019-04-14T19:55:55.232Z,91.60
2019-04-14T19:58:24.977Z,91.50
2019-04-14T20:00:54.412Z,91.40
2019-04-14T20:03:23.849Z,91.20
2019-04-14T20:05:53.376Z,91.30
2019-04-14T20:08:22.650Z,91.50
2019-04-14T20:10:51.913Z,91.50
2019-04-14T20:13:21.625Z,91.40
2019-04-14T20:16:16.156Z,91.40
2019-04-14T20:19:13.678Z,91.50
2019-04-14T20:22:08.165Z,91.60
2019-04-14T20:24:56.638Z,91.50
2019-04-14T20:27:32.226Z,91.70
2019-04-14T20:30:06.176Z,91.40
2019-04-14T20:32:37.049Z,91.50
2019-04-14T20:35:06.396Z,91.50
2019-04-14T20:37:35.840Z,91.70
2019-04-14T20:40:05.532Z,91.50
2019-04-14T20:42:35.155Z,91.50
2019-04-14T20:45:06.453Z,91.60
2019-04-14T20:47:36.057Z,91.30
2019-04-14T20:50:06.158Z,91.60
2019-04-14T20:52:35.561Z,91.70
2019-04-14T20:55:05.292Z,91.80
2019-04-14T20:57:35.740Z,91.80
2019-04-14T21:00:05.761Z,91.90
2019-04-14T21:02:59.043Z,91.90
2019-04-14T21:05:38.789Z,91.90
2019-04-14T21:08:33.894Z,91.90
2019-04-14T21:11:07.505Z,91.90
2019-04-14T21:13:51.724Z,91.80
2019-04-14T21:16:29.041Z,91.70
2019-04-14T21:19:09.885Z,91.70
2019-04-14T21:21:48.018Z,91.90
2019-04-14T21:24:36.392Z,91.80
2019-04-14T21:27:20.020Z,91.80
2019-04-14T21:30:11.184Z,91.70
2019-04-14T21:32:45.621Z,91.80
2019-04-14T21:35:49.141Z,91.80
2019-04-14T21:38:38.603Z,91.90
2019-04-14T21:41:20.628Z,91.90
2019-04-14T21:43:49.949Z,91.90
2019-04-14T21:46:19.483Z,92.00
2019-04-14T21:48:48.791Z,92.00
2019-04-14T21:51:18.276Z,92.10
2019-04-14T21:53:48.036Z,92.10
2019-04-14T21:56:17.417Z,92.00
2019-04-14T21:58:55.412Z,92.10
2019-04-14T22:01:50.893Z,92.20
2019-04-14T22:04:45.894Z,92.20
2019-04-14T22:07:26.480Z,92.30
2019-04-14T22:09:59.477Z,92.50
2019-04-14T22:12:29.352Z,92.40
2019-04-14T22:14:58.603Z,92.40
2019-04-14T22:17:28.013Z,92.20
2019-04-14T22:19:57.272Z,92.20
2019-04-14T22:22:26.541Z,92.20
2019-04-14T22:24:55.916Z,92.10
2019-04-14T22:27:25.229Z,92.00
2019-04-14T22:29:54.566Z,91.90
2019-04-14T22:32:23.972Z,91.90
2019-04-14T22:34:53.269Z,91.90
2019-04-14T22:37:22.669Z,91.90
2019-04-14T22:39:52.253Z,92.00
2019-04-14T22:42:21.556Z,92.10
2019-04-14T22:44:50.840Z,92.20
2019-04-14T22:47:20.272Z,92.40
2019-04-14T22:49:49.525Z,92.20
2019-04-14T22:52:18.856Z,92.20
2019-04-14T22:54:48.092Z,92.30
2019-04-14T22:57:17.404Z,92.30
2019-04-14T22:59:46.644Z,92.10
2019-04-14T23:02:27.932Z,92.00
2019-04-14T23:05:10.700Z,92.00
2019-04-14T23:08:01.658Z,92.10
2019-04-14T23:10:42.627Z,92.10
2019-04-14T23:13:20.708Z,92.10
2019-04-14T23:15:57.473Z,92.10
2019-04-14T23:18:31.232Z,92.20
2019-04-14T23:21:23.105Z,92.10
2019-04-14T23:24:10.465Z,92.00
2019-04-14T23:26:51.858Z,91.90
2019-04-14T23:29:11.729Z,92.00
2019-04-14T23:31:41.037Z,91.80
2019-04-14T23:34:10.304Z,91.80
2019-04-14T23:36:39.529Z,91.80
2019-04-14T23:39:11.045Z,91.90
2019-04-14T23:41:40.277Z,91.80
2019-04-14T23:44:09.526Z,92.20
2019-04-14T23:46:38.773Z,92.10
2019-04-14T23:49:08.101Z,92.10
2019-04-14T23:51:38.396Z,91.90
2019-04-14T23:54:07.664Z,92.10
2019-04-14T23:56:36.898Z,92.00
2019-04-14T23:59:06.137Z,92.20
